sensor_id;sensor_type;location;lat;lon;timestamp;P1;durP1;ratioP1;P2;durP2;ratioP2
62707;SDS011;48769;51.624;5.886;2023-04-06T00:00:43;21.55;;;15.48;;
62707;SDS011;48769;51.624;5.886;2023-04-06T00:03:08;28.05;;;17.20;;
62707;SDS011;48769;51.624;5.886;2023-04-06T00:05:33;24.92;;;16.30;;
62707;SDS011;48769;51.624;5.886;2023-04-06T00:07:59;21.48;;;15.48;;
62707;SDS011;48769;51.624;5.886;2023-04-06T00:10:25;31.70;;;17.10;;
62707;SDS011;48769;51.624;5.886;2023-04-06T00:12:51;24.48;;;16.13;;
62707;SDS011;48769;51.624;5.886;2023-04-06T00:15:16;24.67;;;16.05;;
62707;SDS011;48769;51.624;5.886;2023-04-06T00:17:42;21.77;;;16.00;;
62707;SDS011;48769;51.624;5.886;2023-04-06T00:20:07;23.83;;;16.00;;
62707;SDS011;48769;51.624;5.886;2023-04-06T00:22:33;23.08;;;16.35;;
62707;SDS011;48769;51.624;5.886;2023-04-06T00:24:58;26.67;;;16.88;;
62707;SDS011;48769;51.624;5.886;2023-04-06T00:27:24;24.75;;;15.27;;
62707;SDS011;48769;51.624;5.886;2023-04-06T00:29:49;23.00;;;15.35;;
62707;SDS011;48769;51.624;5.886;2023-04-06T00:32:15;23.20;;;15.88;;
62707;SDS011;48769;51.624;5.886;2023-04-06T00:34:41;22.83;;;15.73;;
62707;SDS011;48769;51.624;5.886;2023-04-06T00:37:06;24.17;;;15.55;;
62707;SDS011;48769;51.624;5.886;2023-04-06T00:39:31;22.08;;;15.82;;
62707;SDS011;48769;51.624;5.886;2023-04-06T00:41:57;23.98;;;16.55;;
62707;SDS011;48769;51.624;5.886;2023-04-06T00:44:22;26.05;;;16.23;;
62707;SDS011;48769;51.624;5.886;2023-04-06T00:46:48;24.45;;;16.90;;
62707;SDS011;48769;51.624;5.886;2023-04-06T00:49:14;28.40;;;16.45;;
62707;SDS011;48769;51.624;5.886;2023-04-06T00:51:39;22.65;;;16.45;;
62707;SDS011;48769;51.624;5.886;2023-04-06T00:54:04;24.45;;;16.75;;
62707;SDS011;48769;51.624;5.886;2023-04-06T00:56:30;26.88;;;17.58;;
62707;SDS011;48769;51.624;5.886;2023-04-06T00:58:56;27.92;;;17.13;;
62707;SDS011;48769;51.624;5.886;2023-04-06T01:01:21;28.33;;;16.70;;
62707;SDS011;48769;51.624;5.886;2023-04-06T01:03:48;27.90;;;16.70;;
62707;SDS011;48769;51.624;5.886;2023-04-06T01:06:15;24.45;;;16.85;;
62707;SDS011;48769;51.624;5.886;2023-04-06T01:08:40;24.33;;;16.05;;
62707;SDS011;48769;51.624;5.886;2023-04-06T01:11:05;24.48;;;17.23;;
62707;SDS011;48769;51.624;5.886;2023-04-06T01:13:31;29.05;;;17.20;;
62707;SDS011;48769;51.624;5.886;2023-04-06T01:15:56;24.80;;;16.58;;
62707;SDS011;48769;51.624;5.886;2023-04-06T01:18:25;29.23;;;16.35;;
62707;SDS011;48769;51.624;5.886;2023-04-06T01:20:52;22.95;;;15.65;;
62707;SDS011;48769;51.624;5.886;2023-04-06T01:23:17;24.67;;;15.85;;
62707;SDS011;48769;51.624;5.886;2023-04-06T01:25:42;22.02;;;14.85;;
62707;SDS011;48769;51.624;5.886;2023-04-06T01:28:08;22.15;;;15.18;;
62707;SDS011;48769;51.624;5.886;2023-04-06T01:30:33;22.67;;;15.63;;
62707;SDS011;48769;51.624;5.886;2023-04-06T01:32:59;22.83;;;14.88;;
62707;SDS011;48769;51.624;5.886;2023-04-06T01:35:25;21.92;;;15.48;;
62707;SDS011;48769;51.624;5.886;2023-04-06T01:37:51;22.40;;;14.48;;
62707;SDS011;48769;51.624;5.886;2023-04-06T01:40:17;22.80;;;15.13;;
62707;SDS011;48769;51.624;5.886;2023-04-06T01:42:42;25.48;;;16.40;;
62707;SDS011;48769;51.624;5.886;2023-04-06T01:45:08;30.95;;;17.65;;
62707;SDS011;48769;51.624;5.886;2023-04-06T01:47:33;22.13;;;16.02;;
62707;SDS011;48769;51.624;5.886;2023-04-06T01:49:59;28.73;;;16.45;;
62707;SDS011;48769;51.624;5.886;2023-04-06T01:52:24;27.15;;;16.42;;
62707;SDS011;48769;51.624;5.886;2023-04-06T01:54:50;24.65;;;17.50;;
62707;SDS011;48769;51.624;5.886;2023-04-06T01:57:15;25.17;;;17.35;;
62707;SDS011;48769;51.624;5.886;2023-04-06T01:59:40;25.20;;;16.92;;
62707;SDS011;48769;51.624;5.886;2023-04-06T02:02:06;24.20;;;16.88;;
62707;SDS011;48769;51.624;5.886;2023-04-06T02:04:31;25.35;;;16.60;;
62707;SDS011;48769;51.624;5.886;2023-04-06T02:06:56;27.08;;;17.02;;
62707;SDS011;48769;51.624;5.886;2023-04-06T02:09:22;27.83;;;17.85;;
62707;SDS011;48769;51.624;5.886;2023-04-06T02:11:47;27.65;;;16.80;;
62707;SDS011;48769;51.624;5.886;2023-04-06T02:14:13;26.17;;;16.73;;
62707;SDS011;48769;51.624;5.886;2023-04-06T02:16:38;23.73;;;16.05;;
62707;SDS011;48769;51.624;5.886;2023-04-06T02:19:03;24.85;;;16.58;;
62707;SDS011;48769;51.624;5.886;2023-04-06T02:21:29;24.65;;;16.80;;
62707;SDS011;48769;51.624;5.886;2023-04-06T02:23:54;24.88;;;16.60;;
62707;SDS011;48769;51.624;5.886;2023-04-06T02:26:20;27.85;;;17.50;;
62707;SDS011;48769;51.624;5.886;2023-04-06T02:28:45;28.00;;;17.40;;
62707;SDS011;48769;51.624;5.886;2023-04-06T02:31:11;30.45;;;17.17;;
62707;SDS011;48769;51.624;5.886;2023-04-06T02:33:36;27.20;;;18.23;;
62707;SDS011;48769;51.624;5.886;2023-04-06T02:36:02;27.90;;;17.52;;
62707;SDS011;48769;51.624;5.886;2023-04-06T02:38:27;30.70;;;17.75;;
62707;SDS011;48769;51.624;5.886;2023-04-06T02:40:53;25.17;;;17.38;;
62707;SDS011;48769;51.624;5.886;2023-04-06T02:43:18;27.40;;;16.67;;
62707;SDS011;48769;51.624;5.886;2023-04-06T02:45:44;26.67;;;16.58;;
62707;SDS011;48769;51.624;5.886;2023-04-06T02:48:10;27.00;;;17.00;;
62707;SDS011;48769;51.624;5.886;2023-04-06T02:50:36;24.15;;;16.23;;
62707;SDS011;48769;51.624;5.886;2023-04-06T02:53:01;23.40;;;16.55;;
62707;SDS011;48769;51.624;5.886;2023-04-06T02:55:26;29.02;;;17.40;;
62707;SDS011;48769;51.624;5.886;2023-04-06T02:57:51;25.33;;;15.30;;
62707;SDS011;48769;51.624;5.886;2023-04-06T03:00:17;25.45;;;16.10;;
62707;SDS011;48769;51.624;5.886;2023-04-06T03:02:42;29.40;;;15.93;;
62707;SDS011;48769;51.624;5.886;2023-04-06T03:05:08;24.00;;;16.85;;
62707;SDS011;48769;51.624;5.886;2023-04-06T03:07:33;26.20;;;15.80;;
62707;SDS011;48769;51.624;5.886;2023-04-06T03:09:59;25.20;;;17.52;;
62707;SDS011;48769;51.624;5.886;2023-04-06T03:12:24;23.67;;;16.30;;
62707;SDS011;48769;51.624;5.886;2023-04-06T03:14:49;31.42;;;18.13;;
62707;SDS011;48769;51.624;5.886;2023-04-06T03:17:15;29.23;;;17.13;;
62707;SDS011;48769;51.624;5.886;2023-04-06T03:19:40;28.25;;;17.42;;
62707;SDS011;48769;51.624;5.886;2023-04-06T03:22:05;28.60;;;18.10;;
62707;SDS011;48769;51.624;5.886;2023-04-06T03:24:31;27.42;;;18.05;;
62707;SDS011;48769;51.624;5.886;2023-04-06T03:26:56;27.52;;;17.38;;
62707;SDS011;48769;51.624;5.886;2023-04-06T03:29:21;24.15;;;17.17;;
62707;SDS011;48769;51.624;5.886;2023-04-06T03:31:47;28.52;;;16.55;;
62707;SDS011;48769;51.624;5.886;2023-04-06T03:34:12;30.23;;;18.30;;
62707;SDS011;48769;51.624;5.886;2023-04-06T03:36:37;25.38;;;17.38;;
62707;SDS011;48769;51.624;5.886;2023-04-06T03:39:03;27.13;;;17.13;;
62707;SDS011;48769;51.624;5.886;2023-04-06T03:41:29;30.88;;;17.35;;
62707;SDS011;48769;51.624;5.886;2023-04-06T03:43:54;32.90;;;17.65;;
62707;SDS011;48769;51.624;5.886;2023-04-06T03:46:20;27.83;;;17.52;;
62707;SDS011;48769;51.624;5.886;2023-04-06T03:48:48;29.30;;;17.80;;
62707;SDS011;48769;51.624;5.886;2023-04-06T03:51:13;32.55;;;19.10;;
62707;SDS011;48769;51.624;5.886;2023-04-06T03:53:39;31.52;;;18.20;;
62707;SDS011;48769;51.624;5.886;2023-04-06T03:56:04;28.38;;;17.52;;
62707;SDS011;48769;51.624;5.886;2023-04-06T03:58:30;27.88;;;18.10;;
62707;SDS011;48769;51.624;5.886;2023-04-06T04:00:56;31.13;;;18.98;;
62707;SDS011;48769;51.624;5.886;2023-04-06T04:03:21;29.90;;;19.55;;
62707;SDS011;48769;51.624;5.886;2023-04-06T04:05:48;41.00;;;20.13;;
62707;SDS011;48769;51.624;5.886;2023-04-06T04:08:15;31.40;;;20.27;;
62707;SDS011;48769;51.624;5.886;2023-04-06T04:10:40;37.10;;;19.23;;
62707;SDS011;48769;51.624;5.886;2023-04-06T04:13:06;29.58;;;18.73;;
62707;SDS011;48769;51.624;5.886;2023-04-06T04:15:31;32.85;;;19.77;;
62707;SDS011;48769;51.624;5.886;2023-04-06T04:17:56;35.10;;;20.98;;
62707;SDS011;48769;51.624;5.886;2023-04-06T04:20:22;32.47;;;20.42;;
62707;SDS011;48769;51.624;5.886;2023-04-06T04:22:47;34.40;;;21.20;;
62707;SDS011;48769;51.624;5.886;2023-04-06T04:25:12;31.42;;;19.70;;
62707;SDS011;48769;51.624;5.886;2023-04-06T04:27:38;40.53;;;21.38;;
62707;SDS011;48769;51.624;5.886;2023-04-06T04:30:03;44.35;;;21.52;;
62707;SDS011;48769;51.624;5.886;2023-04-06T04:32:30;37.97;;;22.73;;
62707;SDS011;48769;51.624;5.886;2023-04-06T04:34:55;39.90;;;22.80;;
62707;SDS011;48769;51.624;5.886;2023-04-06T04:37:21;33.30;;;21.50;;
62707;SDS011;48769;51.624;5.886;2023-04-06T04:39:46;42.47;;;23.85;;
62707;SDS011;48769;51.624;5.886;2023-04-06T04:42:11;37.92;;;22.15;;
62707;SDS011;48769;51.624;5.886;2023-04-06T04:44:37;40.42;;;23.05;;
62707;SDS011;48769;51.624;5.886;2023-04-06T04:47:02;39.38;;;22.48;;
62707;SDS011;48769;51.624;5.886;2023-04-06T04:49:28;32.58;;;21.23;;
62707;SDS011;48769;51.624;5.886;2023-04-06T04:51:53;36.03;;;21.80;;
62707;SDS011;48769;51.624;5.886;2023-04-06T04:54:19;34.08;;;21.58;;
62707;SDS011;48769;51.624;5.886;2023-04-06T04:56:44;36.83;;;22.95;;
62707;SDS011;48769;51.624;5.886;2023-04-06T04:59:10;43.88;;;24.75;;
62707;SDS011;48769;51.624;5.886;2023-04-06T05:01:36;42.53;;;23.85;;
62707;SDS011;48769;51.624;5.886;2023-04-06T05:04:01;40.53;;;23.35;;
62707;SDS011;48769;51.624;5.886;2023-04-06T05:06:26;42.47;;;23.77;;
62707;SDS011;48769;51.624;5.886;2023-04-06T05:08:52;38.97;;;22.83;;
62707;SDS011;48769;51.624;5.886;2023-04-06T05:11:17;41.30;;;24.15;;
62707;SDS011;48769;51.624;5.886;2023-04-06T05:13:42;40.88;;;23.42;;
62707;SDS011;48769;51.624;5.886;2023-04-06T05:16:08;38.42;;;22.90;;
62707;SDS011;48769;51.624;5.886;2023-04-06T05:18:33;39.22;;;23.55;;
62707;SDS011;48769;51.624;5.886;2023-04-06T05:20:59;39.60;;;24.05;;
62707;SDS011;48769;51.624;5.886;2023-04-06T05:23:24;34.53;;;23.48;;
62707;SDS011;48769;51.624;5.886;2023-04-06T05:25:50;33.13;;;23.13;;
62707;SDS011;48769;51.624;5.886;2023-04-06T05:28:15;35.45;;;23.75;;
62707;SDS011;48769;51.624;5.886;2023-04-06T05:30:42;36.17;;;23.13;;
62707;SDS011;48769;51.624;5.886;2023-04-06T05:33:08;43.17;;;24.65;;
62707;SDS011;48769;51.624;5.886;2023-04-06T05:35:34;36.83;;;24.20;;
62707;SDS011;48769;51.624;5.886;2023-04-06T05:37:59;38.78;;;25.30;;
62707;SDS011;48769;51.624;5.886;2023-04-06T05:40:25;48.35;;;25.40;;
62707;SDS011;48769;51.624;5.886;2023-04-06T05:42:51;40.58;;;23.70;;
62707;SDS011;48769;51.624;5.886;2023-04-06T05:45:16;41.63;;;24.75;;
62707;SDS011;48769;51.624;5.886;2023-04-06T05:47:43;37.38;;;23.90;;
62707;SDS011;48769;51.624;5.886;2023-04-06T05:50:09;48.80;;;24.00;;
62707;SDS011;48769;51.624;5.886;2023-04-06T05:52:35;38.20;;;22.85;;
62707;SDS011;48769;51.624;5.886;2023-04-06T05:55:01;39.75;;;24.67;;
62707;SDS011;48769;51.624;5.886;2023-04-06T05:57:28;39.15;;;24.13;;
62707;SDS011;48769;51.624;5.886;2023-04-06T05:59:53;42.03;;;24.42;;
62707;SDS011;48769;51.624;5.886;2023-04-06T06:02:20;40.15;;;24.73;;
62707;SDS011;48769;51.624;5.886;2023-04-06T06:04:45;34.72;;;22.30;;
62707;SDS011;48769;51.624;5.886;2023-04-06T06:07:11;41.13;;;24.10;;
62707;SDS011;48769;51.624;5.886;2023-04-06T06:09:36;35.17;;;22.70;;
62707;SDS011;48769;51.624;5.886;2023-04-06T06:12:02;38.90;;;23.85;;
62707;SDS011;48769;51.624;5.886;2023-04-06T06:14:27;34.00;;;21.60;;
62707;SDS011;48769;51.624;5.886;2023-04-06T06:16:55;38.65;;;23.13;;
62707;SDS011;48769;51.624;5.886;2023-04-06T06:19:21;41.20;;;24.30;;
62707;SDS011;48769;51.624;5.886;2023-04-06T06:21:46;34.50;;;23.00;;
62707;SDS011;48769;51.624;5.886;2023-04-06T06:24:12;37.20;;;23.45;;
62707;SDS011;48769;51.624;5.886;2023-04-06T06:26:37;36.92;;;23.45;;
62707;SDS011;48769;51.624;5.886;2023-04-06T06:29:04;39.63;;;22.73;;
62707;SDS011;48769;51.624;5.886;2023-04-06T06:31:30;34.33;;;22.27;;
62707;SDS011;48769;51.624;5.886;2023-04-06T06:33:56;44.80;;;24.27;;
62707;SDS011;48769;51.624;5.886;2023-04-06T06:36:21;29.92;;;19.92;;
62707;SDS011;48769;51.624;5.886;2023-04-06T06:38:46;41.35;;;23.02;;
62707;SDS011;48769;51.624;5.886;2023-04-06T06:41:12;35.30;;;21.25;;
62707;SDS011;48769;51.624;5.886;2023-04-06T06:43:37;38.50;;;21.92;;
62707;SDS011;48769;51.624;5.886;2023-04-06T06:46:03;33.33;;;21.50;;
62707;SDS011;48769;51.624;5.886;2023-04-06T06:48:28;30.27;;;21.17;;
62707;SDS011;48769;51.624;5.886;2023-04-06T06:50:54;33.53;;;21.40;;
62707;SDS011;48769;51.624;5.886;2023-04-06T06:53:19;34.97;;;21.73;;
62707;SDS011;48769;51.624;5.886;2023-04-06T06:55:45;34.05;;;21.52;;
62707;SDS011;48769;51.624;5.886;2023-04-06T06:58:10;38.50;;;21.92;;
62707;SDS011;48769;51.624;5.886;2023-04-06T07:00:36;35.30;;;21.80;;
62707;SDS011;48769;51.624;5.886;2023-04-06T07:03:01;37.90;;;21.95;;
62707;SDS011;48769;51.624;5.886;2023-04-06T07:05:27;33.83;;;21.20;;
62707;SDS011;48769;51.624;5.886;2023-04-06T07:07:52;37.30;;;22.05;;
62707;SDS011;48769;51.624;5.886;2023-04-06T07:10:18;31.35;;;20.65;;
62707;SDS011;48769;51.624;5.886;2023-04-06T07:12:44;33.03;;;21.33;;
62707;SDS011;48769;51.624;5.886;2023-04-06T07:15:09;30.67;;;19.95;;
62707;SDS011;48769;51.624;5.886;2023-04-06T07:17:35;33.80;;;20.65;;
62707;SDS011;48769;51.624;5.886;2023-04-06T07:20:00;31.40;;;20.45;;
62707;SDS011;48769;51.624;5.886;2023-04-06T07:22:26;33.83;;;20.23;;
62707;SDS011;48769;51.624;5.886;2023-04-06T07:24:51;34.13;;;21.42;;
62707;SDS011;48769;51.624;5.886;2023-04-06T07:27:17;32.22;;;19.92;;
62707;SDS011;48769;51.624;5.886;2023-04-06T07:29:43;41.35;;;21.13;;
62707;SDS011;48769;51.624;5.886;2023-04-06T07:32:09;32.78;;;22.23;;
62707;SDS011;48769;51.624;5.886;2023-04-06T07:34:35;40.47;;;20.83;;
62707;SDS011;48769;51.624;5.886;2023-04-06T07:37:00;29.65;;;20.58;;
62707;SDS011;48769;51.624;5.886;2023-04-06T07:39:26;33.53;;;20.80;;
62707;SDS011;48769;51.624;5.886;2023-04-06T07:41:52;36.83;;;21.60;;
62707;SDS011;48769;51.624;5.886;2023-04-06T07:44:17;37.95;;;21.30;;
62707;SDS011;48769;51.624;5.886;2023-04-06T07:46:42;36.60;;;21.20;;
62707;SDS011;48769;51.624;5.886;2023-04-06T07:49:08;33.25;;;21.35;;
62707;SDS011;48769;51.624;5.886;2023-04-06T07:51:35;36.08;;;21.27;;
62707;SDS011;48769;51.624;5.886;2023-04-06T07:54:02;31.85;;;20.98;;
62707;SDS011;48769;51.624;5.886;2023-04-06T07:56:27;41.20;;;21.02;;
62707;SDS011;48769;51.624;5.886;2023-04-06T07:58:53;31.48;;;21.52;;
62707;SDS011;48769;51.624;5.886;2023-04-06T08:01:21;39.53;;;21.08;;
62707;SDS011;48769;51.624;5.886;2023-04-06T08:03:46;32.03;;;20.88;;
62707;SDS011;48769;51.624;5.886;2023-04-06T08:06:12;37.10;;;21.83;;
62707;SDS011;48769;51.624;5.886;2023-04-06T08:08:37;37.30;;;21.13;;
62707;SDS011;48769;51.624;5.886;2023-04-06T08:11:02;33.90;;;21.45;;
62707;SDS011;48769;51.624;5.886;2023-04-06T08:13:28;36.08;;;21.35;;
62707;SDS011;48769;51.624;5.886;2023-04-06T08:15:53;33.25;;;21.67;;
62707;SDS011;48769;51.624;5.886;2023-04-06T08:18:19;31.33;;;20.42;;
62707;SDS011;48769;51.624;5.886;2023-04-06T08:20:44;35.75;;;21.02;;
62707;SDS011;48769;51.624;5.886;2023-04-06T08:23:19;35.47;;;21.65;;
62707;SDS011;48769;51.624;5.886;2023-04-06T08:25:44;39.72;;;21.45;;
62707;SDS011;48769;51.624;5.886;2023-04-06T08:28:10;38.28;;;22.05;;
62707;SDS011;48769;51.624;5.886;2023-04-06T08:30:35;32.38;;;21.98;;
62707;SDS011;48769;51.624;5.886;2023-04-06T08:33:00;31.95;;;21.27;;
62707;SDS011;48769;51.624;5.886;2023-04-06T08:35:26;40.20;;;22.10;;
62707;SDS011;48769;51.624;5.886;2023-04-06T08:37:52;30.45;;;21.73;;
62707;SDS011;48769;51.624;5.886;2023-04-06T08:40:18;31.90;;;20.83;;
62707;SDS011;48769;51.624;5.886;2023-04-06T08:42:49;36.95;;;23.17;;
62707;SDS011;48769;51.624;5.886;2023-04-06T08:45:16;32.72;;;21.38;;
62707;SDS011;48769;51.624;5.886;2023-04-06T08:47:42;34.70;;;21.02;;
62707;SDS011;48769;51.624;5.886;2023-04-06T08:50:08;31.58;;;20.45;;
62707;SDS011;48769;51.624;5.886;2023-04-06T08:52:36;33.97;;;22.55;;
62707;SDS011;48769;51.624;5.886;2023-04-06T08:55:03;32.25;;;20.55;;
62707;SDS011;48769;51.624;5.886;2023-04-06T08:57:28;33.50;;;21.13;;
62707;SDS011;48769;51.624;5.886;2023-04-06T08:59:55;38.53;;;22.17;;
62707;SDS011;48769;51.624;5.886;2023-04-06T09:02:21;32.88;;;21.27;;
62707;SDS011;48769;51.624;5.886;2023-04-06T09:04:47;31.60;;;20.65;;
62707;SDS011;48769;51.624;5.886;2023-04-06T09:07:14;34.65;;;23.02;;
62707;SDS011;48769;51.624;5.886;2023-04-06T09:09:40;32.63;;;21.88;;
62707;SDS011;48769;51.624;5.886;2023-04-06T09:12:21;32.08;;;21.65;;
62707;SDS011;48769;51.624;5.886;2023-04-06T09:14:51;33.33;;;21.58;;
62707;SDS011;48769;51.624;5.886;2023-04-06T09:17:20;34.08;;;21.08;;
62707;SDS011;48769;51.624;5.886;2023-04-06T09:19:49;33.78;;;20.33;;
62707;SDS011;48769;51.624;5.886;2023-04-06T09:22:15;31.02;;;21.40;;
62707;SDS011;48769;51.624;5.886;2023-04-06T09:24:45;31.77;;;22.13;;
62707;SDS011;48769;51.624;5.886;2023-04-06T09:27:13;34.78;;;21.30;;
62707;SDS011;48769;51.624;5.886;2023-04-06T09:29:40;36.20;;;22.58;;
62707;SDS011;48769;51.624;5.886;2023-04-06T09:32:06;36.45;;;21.55;;
62707;SDS011;48769;51.624;5.886;2023-04-06T09:34:33;31.77;;;20.52;;
62707;SDS011;48769;51.624;5.886;2023-04-06T09:36:59;34.30;;;21.40;;
62707;SDS011;48769;51.624;5.886;2023-04-06T09:39:24;36.30;;;21.83;;
62707;SDS011;48769;51.624;5.886;2023-04-06T09:41:51;36.40;;;21.63;;
62707;SDS011;48769;51.624;5.886;2023-04-06T09:44:17;34.10;;;20.55;;
62707;SDS011;48769;51.624;5.886;2023-04-06T09:46:45;34.15;;;20.20;;
62707;SDS011;48769;51.624;5.886;2023-04-06T09:49:11;31.98;;;20.50;;
62707;SDS011;48769;51.624;5.886;2023-04-06T09:54:09;34.63;;;20.90;;
62707;SDS011;48769;51.624;5.886;2023-04-06T09:56:47;36.83;;;20.98;;
62707;SDS011;48769;51.624;5.886;2023-04-06T09:59:40;34.45;;;21.38;;
62707;SDS011;48769;51.624;5.886;2023-04-06T10:02:26;36.22;;;21.58;;
62707;SDS011;48769;51.624;5.886;2023-04-06T10:05:05;35.03;;;20.23;;
62707;SDS011;48769;51.624;5.886;2023-04-06T10:07:36;37.45;;;20.30;;
62707;SDS011;48769;51.624;5.886;2023-04-06T10:10:04;37.90;;;22.20;;
62707;SDS011;48769;51.624;5.886;2023-04-06T10:12:30;33.75;;;21.13;;
62707;SDS011;48769;51.624;5.886;2023-04-06T10:14:56;36.15;;;21.38;;
62707;SDS011;48769;51.624;5.886;2023-04-06T10:17:21;33.88;;;21.17;;
62707;SDS011;48769;51.624;5.886;2023-04-06T10:19:50;31.92;;;20.20;;
62707;SDS011;48769;51.624;5.886;2023-04-06T10:22:33;31.33;;;20.33;;
62707;SDS011;48769;51.624;5.886;2023-04-06T10:25:04;34.50;;;20.60;;
62707;SDS011;48769;51.624;5.886;2023-04-06T10:27:29;32.63;;;20.77;;
62707;SDS011;48769;51.624;5.886;2023-04-06T10:30:00;33.40;;;20.85;;
62707;SDS011;48769;51.624;5.886;2023-04-06T10:32:34;37.35;;;20.25;;
62707;SDS011;48769;51.624;5.886;2023-04-06T10:35:09;35.80;;;21.23;;
62707;SDS011;48769;51.624;5.886;2023-04-06T10:40:23;29.70;;;20.75;;
62707;SDS011;48769;51.624;5.886;2023-04-06T10:42:53;34.38;;;20.83;;
62707;SDS011;48769;51.624;5.886;2023-04-06T10:45:23;33.83;;;22.00;;
62707;SDS011;48769;51.624;5.886;2023-04-06T10:47:55;36.67;;;21.17;;
62707;SDS011;48769;51.624;5.886;2023-04-06T10:50:21;32.40;;;21.77;;
62707;SDS011;48769;51.624;5.886;2023-04-06T10:52:57;34.85;;;21.88;;
62707;SDS011;48769;51.624;5.886;2023-04-06T10:55:25;32.30;;;20.98;;
62707;SDS011;48769;51.624;5.886;2023-04-06T10:57:52;28.80;;;20.80;;
62707;SDS011;48769;51.624;5.886;2023-04-06T11:00:18;28.13;;;19.23;;
62707;SDS011;48769;51.624;5.886;2023-04-06T11:02:44;32.33;;;20.45;;
62707;SDS011;48769;51.624;5.886;2023-04-06T11:05:11;33.80;;;20.10;;
62707;SDS011;48769;51.624;5.886;2023-04-06T11:07:36;26.20;;;18.58;;
62707;SDS011;48769;51.624;5.886;2023-04-06T11:10:02;23.92;;;15.75;;
62707;SDS011;48769;51.624;5.886;2023-04-06T11:12:28;25.15;;;15.20;;
62707;SDS011;48769;51.624;5.886;2023-04-06T11:14:59;26.38;;;15.57;;
62707;SDS011;48769;51.624;5.886;2023-04-06T11:17:32;22.15;;;14.77;;
62707;SDS011;48769;51.624;5.886;2023-04-06T11:19:59;24.05;;;14.40;;
62707;SDS011;48769;51.624;5.886;2023-04-06T11:22:25;22.00;;;14.30;;
62707;SDS011;48769;51.624;5.886;2023-04-06T11:24:51;28.25;;;15.13;;
62707;SDS011;48769;51.624;5.886;2023-04-06T11:27:17;21.30;;;13.82;;
62707;SDS011;48769;51.624;5.886;2023-04-06T11:29:44;21.20;;;13.75;;
62707;SDS011;48769;51.624;5.886;2023-04-06T11:32:19;20.75;;;12.90;;
62707;SDS011;48769;51.624;5.886;2023-04-06T11:34:46;19.50;;;12.07;;
62707;SDS011;48769;51.624;5.886;2023-04-06T11:37:12;16.35;;;10.23;;
62707;SDS011;48769;51.624;5.886;2023-04-06T11:39:39;14.52;;;9.82;;
62707;SDS011;48769;51.624;5.886;2023-04-06T11:42:11;15.98;;;9.35;;
62707;SDS011;48769;51.624;5.886;2023-04-06T11:47:08;14.02;;;9.60;;
62707;SDS011;48769;51.624;5.886;2023-04-06T11:49:39;14.90;;;9.82;;
62707;SDS011;48769;51.624;5.886;2023-04-06T11:52:15;13.52;;;9.98;;
62707;SDS011;48769;51.624;5.886;2023-04-06T11:54:41;13.32;;;8.30;;
62707;SDS011;48769;51.624;5.886;2023-04-06T11:57:07;12.23;;;8.43;;
62707;SDS011;48769;51.624;5.886;2023-04-06T11:59:33;17.08;;;9.52;;
62707;SDS011;48769;51.624;5.886;2023-04-06T12:02:00;16.90;;;11.02;;
62707;SDS011;48769;51.624;5.886;2023-04-06T12:04:26;18.85;;;11.35;;
62707;SDS011;48769;51.624;5.886;2023-04-06T12:06:52;16.17;;;10.68;;
62707;SDS011;48769;51.624;5.886;2023-04-06T12:09:17;15.85;;;11.43;;
62707;SDS011;48769;51.624;5.886;2023-04-06T12:11:43;14.80;;;10.10;;
62707;SDS011;48769;51.624;5.886;2023-04-06T12:14:08;17.88;;;11.63;;
62707;SDS011;48769;51.624;5.886;2023-04-06T12:16:34;17.65;;;11.70;;
62707;SDS011;48769;51.624;5.886;2023-04-06T12:19:00;15.13;;;10.05;;
62707;SDS011;48769;51.624;5.886;2023-04-06T12:21:29;14.75;;;9.18;;
62707;SDS011;48769;51.624;5.886;2023-04-06T12:23:59;16.40;;;9.40;;
62707;SDS011;48769;51.624;5.886;2023-04-06T12:26:25;15.05;;;9.52;;
62707;SDS011;48769;51.624;5.886;2023-04-06T12:28:54;15.88;;;10.30;;
62707;SDS011;48769;51.624;5.886;2023-04-06T12:31:20;21.48;;;10.70;;
62707;SDS011;48769;51.624;5.886;2023-04-06T12:33:47;18.73;;;10.77;;
62707;SDS011;48769;51.624;5.886;2023-04-06T12:36:16;14.68;;;9.98;;
62707;SDS011;48769;51.624;5.886;2023-04-06T12:38:49;19.02;;;11.18;;
62707;SDS011;48769;51.624;5.886;2023-04-06T12:41:16;17.13;;;10.32;;
62707;SDS011;48769;51.624;5.886;2023-04-06T12:43:42;15.90;;;10.00;;
62707;SDS011;48769;51.624;5.886;2023-04-06T12:46:08;15.50;;;11.05;;
62707;SDS011;48769;51.624;5.886;2023-04-06T12:48:33;17.15;;;11.10;;
62707;SDS011;48769;51.624;5.886;2023-04-06T12:51:01;18.00;;;11.25;;
62707;SDS011;48769;51.624;5.886;2023-04-06T12:53:27;14.63;;;10.85;;
62707;SDS011;48769;51.624;5.886;2023-04-06T12:55:53;18.48;;;12.20;;
62707;SDS011;48769;51.624;5.886;2023-04-06T12:58:21;19.35;;;11.75;;
62707;SDS011;48769;51.624;5.886;2023-04-06T13:00:47;20.98;;;12.15;;
62707;SDS011;48769;51.624;5.886;2023-04-06T13:03:13;20.77;;;12.38;;
62707;SDS011;48769;51.624;5.886;2023-04-06T13:05:48;19.70;;;12.52;;
62707;SDS011;48769;51.624;5.886;2023-04-06T13:08:15;18.10;;;11.80;;
62707;SDS011;48769;51.624;5.886;2023-04-06T13:10:44;19.15;;;13.63;;
62707;SDS011;48769;51.624;5.886;2023-04-06T13:13:09;21.13;;;12.88;;
62707;SDS011;48769;51.624;5.886;2023-04-06T13:15:35;19.38;;;14.07;;
62707;SDS011;48769;51.624;5.886;2023-04-06T13:18:02;22.42;;;13.85;;
62707;SDS011;48769;51.624;5.886;2023-04-06T13:20:27;20.98;;;14.32;;
62707;SDS011;48769;51.624;5.886;2023-04-06T13:22:53;20.67;;;13.95;;
62707;SDS011;48769;51.624;5.886;2023-04-06T13:25:18;24.10;;;15.43;;
62707;SDS011;48769;51.624;5.886;2023-04-06T13:27:44;20.55;;;13.75;;
62707;SDS011;48769;51.624;5.886;2023-04-06T13:30:12;21.88;;;13.85;;
62707;SDS011;48769;51.624;5.886;2023-04-06T13:32:38;22.67;;;15.38;;
62707;SDS011;48769;51.624;5.886;2023-04-06T13:35:04;24.30;;;14.27;;
62707;SDS011;48769;51.624;5.886;2023-04-06T13:37:31;25.40;;;14.98;;
62707;SDS011;48769;51.624;5.886;2023-04-06T13:39:56;27.60;;;15.48;;
62707;SDS011;48769;51.624;5.886;2023-04-06T13:42:22;22.27;;;14.90;;
62707;SDS011;48769;51.624;5.886;2023-04-06T13:44:48;24.40;;;15.38;;
62707;SDS011;48769;51.624;5.886;2023-04-06T13:47:15;28.50;;;16.52;;
62707;SDS011;48769;51.624;5.886;2023-04-06T13:49:41;27.15;;;15.63;;
62707;SDS011;48769;51.624;5.886;2023-04-06T13:52:06;26.48;;;15.63;;
62707;SDS011;48769;51.624;5.886;2023-04-06T13:54:31;17.90;;;12.98;;
62707;SDS011;48769;51.624;5.886;2023-04-06T13:56:57;19.45;;;13.23;;
62707;SDS011;48769;51.624;5.886;2023-04-06T13:59:22;18.38;;;13.35;;
62707;SDS011;48769;51.624;5.886;2023-04-06T14:01:48;24.70;;;13.77;;
62707;SDS011;48769;51.624;5.886;2023-04-06T14:04:13;21.60;;;13.05;;
62707;SDS011;48769;51.624;5.886;2023-04-06T14:06:38;22.23;;;13.88;;
62707;SDS011;48769;51.624;5.886;2023-04-06T14:09:04;19.98;;;13.68;;
62707;SDS011;48769;51.624;5.886;2023-04-06T14:11:30;19.33;;;13.40;;
62707;SDS011;48769;51.624;5.886;2023-04-06T14:13:56;19.20;;;13.25;;
62707;SDS011;48769;51.624;5.886;2023-04-06T14:16:23;19.50;;;12.57;;
62707;SDS011;48769;51.624;5.886;2023-04-06T14:18:48;19.85;;;12.35;;
62707;SDS011;48769;51.624;5.886;2023-04-06T14:21:14;19.00;;;11.63;;
62707;SDS011;48769;51.624;5.886;2023-04-06T14:23:39;18.58;;;12.07;;